createdAt,value
2022-09-05T00:00:11.774Z,4.25
2022-09-05T00:03:01.533Z,4.45
2022-09-05T00:06:02.778Z,4.50
2022-09-05T00:08:50.906Z,4.57
2022-09-05T00:11:41.086Z,4.25
2022-09-05T00:15:17.358Z,4.82
2022-09-05T00:18:39.727Z,4.82
2022-09-05T00:24:30.061Z,4.82
2022-09-05T00:24:37.913Z,4.38
2022-09-05T00:26:56.701Z,4.70
2022-09-05T00:31:05.738Z,4.50
2022-09-05T00:33:24.180Z,4.85
2022-09-05T00:36:13.401Z,4.85
2022-09-05T00:38:52.139Z,4.22
2022-09-05T00:41:20.340Z,4.68
2022-09-05T00:43:51.727Z,4.50
2022-09-05T00:46:27.551Z,4.38
2022-09-05T00:49:18.379Z,4.03
2022-09-05T00:51:58.949Z,4.45
2022-09-05T00:54:51.553Z,4.40
2022-09-05T00:57:43.269Z,4.25
2022-09-05T01:00:19.211Z,4.43
2022-09-05T01:03:29.279Z,3.88
2022-09-05T01:06:19.126Z,4.00
2022-09-05T01:09:26.060Z,4.50
2022-09-05T01:12:15.060Z,4.30
2022-09-05T01:15:08.060Z,4.93
2022-09-05T01:17:53.514Z,4.50
2022-09-05T01:20:40.260Z,4.18
2022-09-05T01:23:37.178Z,4.78
2022-09-05T01:26:41.982Z,4.22
2022-09-05T01:29:26.095Z,4.70
2022-09-05T01:32:16.305Z,4.15
2022-09-05T01:35:04.768Z,4.95
2022-09-05T01:37:45.276Z,4.53
2022-09-05T01:40:29.103Z,4.43
2022-09-05T01:43:20.781Z,4.88
2022-09-05T01:45:53.526Z,4.43
2022-09-05T01:48:35.237Z,4.63
2022-09-05T01:51:28.877Z,3.72
2022-09-05T01:54:24.370Z,4.55
2022-09-05T01:57:10.624Z,4.90
2022-09-05T01:59:49.284Z,4.85
2022-09-05T02:02:50.400Z,5.00
2022-09-05T02:06:14.103Z,4.55
2022-09-05T02:09:18.725Z,4.53
2022-09-05T02:11:53.456Z,4.97
2022-09-05T02:14:38.985Z,4.63
2022-09-05T02:17:50.120Z,5.45
2022-09-05T02:20:23.967Z,5.20
2022-09-05T02:23:34.210Z,5.47
2022-09-05T02:26:04.138Z,4.50
2022-09-05T02:28:45.875Z,4.65
2022-09-05T02:31:22.078Z,4.68
2022-09-05T02:34:03.066Z,4.72
2022-09-05T02:36:44.475Z,5.07
2022-09-05T02:45:04.305Z,5.00
2022-09-05T02:45:20.931Z,4.43
2022-09-05T02:45:28.760Z,4.63
2022-09-05T02:48:19.402Z,4.55
2022-09-05T02:57:25.162Z,4.95
2022-09-05T02:57:37.800Z,4.53
2022-09-05T02:57:38.339Z,4.40
2022-09-05T03:00:16.501Z,4.03
2022-09-05T03:03:17.705Z,4.43
2022-09-05T03:05:58.153Z,4.25
2022-09-05T03:08:49.502Z,4.68
2022-09-05T03:12:28.938Z,4.57
2022-09-05T03:15:44.493Z,4.28
2022-09-05T03:19:02.554Z,4.20
2022-09-05T03:22:18.471Z,4.22
2022-09-05T03:25:53.938Z,4.28
2022-09-05T03:29:29.099Z,4.50
2022-09-05T03:32:42.059Z,4.38
2022-09-05T03:36:08.643Z,4.07
2022-09-05T03:39:28.686Z,4.22
2022-09-05T03:42:35.083Z,4.00
2022-09-05T03:45:44.422Z,4.13
2022-09-05T03:48:43.069Z,4.00
2022-09-05T03:57:06.447Z,4.10
2022-09-05T03:57:18.472Z,3.95
2022-09-05T03:58:59.392Z,4.38
2022-09-05T04:03:42.235Z,4.45
2022-09-05T04:08:18.371Z,4.07
2022-09-05T04:08:26.467Z,5.10
2022-09-05T04:10:33.359Z,4.18
2022-09-05T04:13:08.852Z,4.28
2022-09-05T04:15:44.587Z,4.07
2022-09-05T04:18:34.956Z,4.43
2022-09-05T04:21:13.365Z,4.82
2022-09-05T04:24:10.885Z,4.35
2022-09-05T04:27:13.819Z,4.95
2022-09-05T04:29:58.802Z,4.20
2022-09-05T04:32:46.009Z,4.57
2022-09-05T04:35:34.316Z,4.97
2022-09-05T04:38:13.802Z,5.00
2022-09-05T04:40:49.241Z,5.10
2022-09-05T04:43:29.734Z,4.90
2022-09-05T04:46:12.361Z,4.82
2022-09-05T04:48:52.574Z,5.50
2022-09-05T04:52:00.028Z,5.18
2022-09-05T04:54:38.500Z,4.63
2022-09-05T04:57:21.817Z,4.72
2022-09-05T05:05:58.740Z,4.90
2022-09-05T05:06:08.917Z,4.80
2022-09-05T05:06:12.587Z,5.15
2022-09-05T05:08:55.419Z,4.80
2022-09-05T05:15:17.203Z,5.43
2022-09-05T05:18:08.631Z,5.47
2022-09-05T05:18:11.658Z,5.32
2022-09-05T05:20:40.445Z,5.13
2022-09-05T05:23:15.908Z,5.68
2022-09-05T05:25:51.413Z,5.60
2022-09-05T05:28:28.973Z,5.15
2022-09-05T05:31:10.711Z,5.80
2022-09-05T05:33:41.815Z,5.72
2022-09-05T05:36:20.023Z,5.57
2022-09-05T05:38:56.427Z,5.43
2022-09-05T05:41:36.157Z,5.70
2022-09-05T05:44:14.196Z,5.68
2022-09-05T05:46:47.451Z,6.35
2022-09-05T05:49:46.207Z,5.63
2022-09-05T05:52:58.555Z,5.65
2022-09-05T05:55:59.604Z,6.30
2022-09-05T05:58:56.035Z,7.13
2022-09-05T06:02:06.571Z,5.93
2022-09-05T06:05:29.852Z,6.90
2022-09-05T06:10:41.699Z,6.47
2022-09-05T06:15:05.030Z,7.68
2022-09-05T06:15:31.094Z,7.28
2022-09-05T06:18:54.450Z,7.30
2022-09-05T06:22:10.651Z,5.55
2022-09-05T06:25:43.500Z,6.55
2022-09-05T06:28:25.909Z,7.05
2022-09-05T06:31:29.520Z,6.20
2022-09-05T06:34:32.821Z,6.18
2022-09-05T06:37:17.764Z,6.60
2022-09-05T06:40:09.417Z,6.20
2022-09-05T06:43:03.023Z,6.65
2022-09-05T06:46:03.275Z,6.47
2022-09-05T06:48:58.622Z,6.60
2022-09-05T06:52:33.100Z,6.65
2022-09-05T06:55:51.249Z,6.50
2022-09-05T06:59:21.866Z,7.22
2022-09-05T07:02:01.138Z,7.07
2022-09-05T07:05:24.094Z,7.00
2022-09-05T07:07:45.608Z,6.82
2022-09-05T07:10:38.429Z,5.55
2022-09-05T07:13:17.049Z,6.10
2022-09-05T07:15:57.317Z,6.30
2022-09-05T07:18:36.176Z,5.80
2022-09-05T07:24:44.175Z,5.50
2022-09-05T07:27:55.972Z,4.75
2022-09-05T07:30:24.518Z,5.07
2022-09-05T07:32:56.441Z,5.03
2022-09-05T07:35:31.122Z,5.07
2022-09-05T07:38:14.980Z,4.85
2022-09-05T07:40:52.787Z,4.57
2022-09-05T07:43:26.631Z,4.13
2022-09-05T07:46:11.536Z,4.00
2022-09-05T07:48:45.204Z,3.30
2022-09-05T07:56:48.858Z,3.70
2022-09-05T07:57:00.801Z,3.78
2022-09-05T07:57:30.317Z,3.50
2022-09-05T08:00:25.564Z,3.22
2022-09-05T08:02:56.228Z,2.83
2022-09-05T08:05:34.886Z,2.53
2022-09-05T08:08:10.335Z,2.60
2022-09-05T08:11:22.243Z,2.70
2022-09-05T08:14:10.480Z,2.90
2022-09-05T08:16:48.672Z,2.78
2022-09-05T08:20:08.591Z,2.55
2022-09-05T08:22:52.391Z,2.25
2022-09-05T08:25:36.250Z,3.08
2022-09-05T08:28:39.422Z,3.00
2022-09-05T08:31:15.741Z,2.60
2022-09-05T08:33:45.044Z,2.58
2022-09-05T08:36:27.597Z,2.95
2022-09-05T08:39:00.383Z,2.72
2022-09-05T08:41:49.720Z,2.72
2022-09-05T08:46:47.821Z,2.58
2022-09-05T08:47:45.021Z,2.55
2022-09-05T08:50:34.292Z,2.63
2022-09-05T08:53:35.353Z,2.38
2022-09-05T08:56:18.110Z,2.05
2022-09-05T08:59:32.128Z,2.30
2022-09-05T09:02:47.426Z,2.50
2022-09-05T09:05:15.842Z,2.00
2022-09-05T09:07:54.915Z,2.15
2022-09-05T09:10:47.983Z,1.88
2022-09-05T09:13:35.850Z,2.03
2022-09-05T09:16:10.881Z,1.92
2022-09-05T09:19:07.926Z,1.85
2022-09-05T09:21:43.447Z,1.90
2022-09-05T09:24:30.050Z,2.42
2022-09-05T09:27:06.241Z,1.88
2022-09-05T09:29:41.092Z,1.90
2022-09-05T09:32:15.019Z,2.13
2022-09-05T09:34:57.715Z,2.30
2022-09-05T09:38:09.995Z,2.08
2022-09-05T09:41:31.955Z,1.98
2022-09-05T09:45:28.685Z,1.80
2022-09-05T09:48:51.651Z,2.03
2022-09-05T09:51:39.053Z,1.80
2022-09-05T09:54:50.944Z,2.10
2022-09-05T09:57:57.301Z,2.00
2022-09-05T10:00:30.479Z,1.65
2022-09-05T10:09:15.019Z,1.98
2022-09-05T10:10:45.282Z,1.92
2022-09-05T10:10:52.198Z,1.52
2022-09-05T10:13:25.712Z,1.70
2022-09-05T10:16:52.798Z,1.73
2022-09-05T10:20:10.604Z,1.55
2022-09-05T10:23:15.392Z,1.70
2022-09-05T10:26:37.046Z,1.70
2022-09-05T10:29:37.045Z,1.83
2022-09-05T10:35:10.678Z,1.30
2022-09-05T10:35:15.252Z,1.70
2022-09-05T10:37:59.786Z,1.60
2022-09-05T10:41:19.871Z,1.65
2022-09-05T10:43:29.065Z,1.42
2022-09-05T10:46:20.111Z,1.70
2022-09-05T10:49:11.670Z,1.60
2022-09-05T10:51:52.123Z,1.83
2022-09-05T10:54:41.012Z,1.58
2022-09-05T10:57:33.391Z,1.50
2022-09-05T11:02:24.776Z,1.55
2022-09-05T11:03:22.953Z,1.65
2022-09-05T11:05:59.644Z,1.52
2022-09-05T11:08:46.894Z,1.42
2022-09-05T11:11:28.602Z,1.50
2022-09-05T11:14:26.399Z,1.60
2022-09-05T11:17:06.983Z,1.50
2022-09-05T11:19:44.307Z,1.42
2022-09-05T11:22:23.731Z,1.50
2022-09-05T11:24:58.132Z,1.30
2022-09-05T11:27:35.298Z,1.27
2022-09-05T11:30:08.052Z,1.38
2022-09-05T11:39:59.545Z,1.48
2022-09-05T11:40:07.229Z,1.52
2022-09-05T11:40:30.086Z,1.60
2022-09-05T11:43:57.394Z,1.40
2022-09-05T11:46:53.774Z,1.48
2022-09-05T11:50:29.302Z,1.42
2022-09-05T11:53:43.324Z,1.30
2022-09-05T11:56:49.994Z,1.48
2022-09-05T12:00:10.713Z,1.50
2022-09-05T12:03:41.513Z,1.50
2022-09-05T12:07:26.322Z,1.33
2022-09-05T12:13:26.527Z,1.20
2022-09-05T12:16:08.476Z,1.42
2022-09-05T12:18:55.765Z,1.60
2022-09-05T12:21:38.860Z,1.45
2022-09-05T12:25:15.924Z,1.40
2022-09-05T12:30:01.002Z,1.35
2022-09-05T12:34:02.731Z,1.48
2022-09-05T12:36:07.238Z,1.70
2022-09-05T12:41:14.845Z,1.65
2022-09-05T12:41:41.715Z,1.30
2022-09-05T12:42:10.210Z,1.50
2022-09-05T12:42:10.356Z,1.27
2022-09-05T12:44:47.236Z,1.60
2022-09-05T12:47:23.001Z,1.33
2022-09-05T12:50:14.249Z,1.42
2022-09-05T12:52:46.470Z,1.55
2022-09-05T12:55:26.656Z,1.50
2022-09-05T13:01:12.702Z,1.60
2022-09-05T13:03:13.877Z,1.15
2022-09-05T13:04:16.780Z,1.45
2022-09-05T13:06:54.801Z,1.33
2022-09-05T13:09:37.176Z,1.40
2022-09-05T13:14:53.610Z,1.48
2022-09-05T13:15:23.290Z,1.38
2022-09-05T13:18:00.877Z,1.40
2022-09-05T13:20:36.516Z,1.35
2022-09-05T13:23:21.223Z,1.50
2022-09-05T13:25:58.529Z,1.60
2022-09-05T13:28:42.966Z,1.50
2022-09-05T13:37:53.963Z,1.40
2022-09-05T13:37:59.202Z,1.55
2022-09-05T13:38:03.935Z,1.63
2022-09-05T13:40:02.537Z,1.70
2022-09-05T13:42:36.719Z,1.30
2022-09-05T13:45:11.242Z,1.60
2022-09-05T13:49:23.539Z,1.60
2022-09-05T13:51:36.452Z,1.48
2022-09-05T13:54:36.255Z,1.40
2022-09-05T13:57:36.760Z,1.50
2022-09-05T14:01:11.259Z,3.92
2022-09-05T14:07:45.102Z,1.73
2022-09-05T14:11:01.293Z,1.42
2022-09-05T14:13:46.858Z,2.05
2022-09-05T14:16:24.249Z,1.98
2022-09-05T14:19:11.915Z,1.30
2022-09-05T14:21:42.987Z,1.40
2022-09-05T14:24:17.006Z,2.45
2022-09-05T14:27:13.772Z,1.85
2022-09-05T14:29:50.822Z,1.58
2022-09-05T14:37:46.473Z,1.58
2022-09-05T14:37:54.322Z,1.50
2022-09-05T14:39:08.502Z,1.60
2022-09-05T14:42:12.296Z,1.58
2022-09-05T14:45:25.863Z,1.92
2022-09-05T14:48:34.004Z,1.45
2022-09-05T14:51:25.952Z,1.55
2022-09-05T14:54:05.212Z,1.58
2022-09-05T15:00:18.628Z,1.30
2022-09-05T15:02:49.442Z,1.35
2022-09-05T15:02:53.586Z,1.40
2022-09-05T15:05:36.525Z,1.60
2022-09-05T15:08:10.437Z,1.50
2022-09-05T15:13:31.515Z,1.60
2022-09-05T15:16:09.835Z,1.42
2022-09-05T15:18:44.406Z,1.70
2022-09-05T15:21:33.179Z,1.50
2022-09-05T15:24:21.231Z,1.60
2022-09-05T15:26:53.562Z,1.50
2022-09-05T15:29:26.315Z,1.42
2022-09-05T15:32:11.706Z,1.40
2022-09-05T15:34:41.290Z,1.73
2022-09-05T15:37:36.825Z,1.40
2022-09-05T15:40:21.945Z,1.70
2022-09-05T15:42:56.499Z,1.60
2022-09-05T15:45:28.236Z,1.55
2022-09-05T15:48:34.006Z,1.30
2022-09-05T15:51:38.087Z,1.50
2022-09-05T15:54:06.787Z,1.50
2022-09-05T15:56:47.089Z,1.30
2022-09-05T15:59:16.359Z,1.65
2022-09-05T16:01:59.507Z,1.60
2022-09-05T16:08:25.119Z,1.70
2022-09-05T16:10:45.591Z,1.23
2022-09-05T16:10:49.816Z,1.42
2022-09-05T16:13:15.391Z,1.73
2022-09-05T16:18:55.845Z,1.58
2022-09-05T16:23:16.852Z,1.50
2022-09-05T16:23:27.979Z,1.55
2022-09-05T16:24:59.341Z,1.70
2022-09-05T16:27:45.711Z,1.90
2022-09-05T16:30:23.875Z,1.58
2022-09-05T16:33:00.715Z,1.50
2022-09-05T16:35:32.421Z,1.60
2022-09-05T16:38:14.607Z,1.60
2022-09-05T16:40:57.665Z,1.45
2022-09-05T16:43:32.211Z,1.65
2022-09-05T16:46:09.386Z,1.48
2022-09-05T16:48:47.142Z,1.40
2022-09-05T16:51:34.984Z,1.58
2022-09-05T16:54:14.149Z,1.40
2022-09-05T16:56:48.430Z,1.90
2022-09-05T16:59:20.770Z,1.65
2022-09-05T17:02:08.205Z,1.77
2022-09-05T17:05:06.198Z,1.88
2022-09-05T17:08:01.399Z,1.60
2022-09-05T17:10:35.844Z,1.60
2022-09-05T17:13:08.843Z,1.48
2022-09-05T17:15:51.699Z,1.73
2022-09-05T17:18:26.115Z,1.50
2022-09-05T17:21:01.565Z,1.50
2022-09-05T17:26:40.445Z,1.58
2022-09-05T17:29:33.610Z,1.70
2022-09-05T17:32:48.410Z,1.55
2022-09-05T17:35:42.441Z,1.50
2022-09-05T17:38:52.614Z,1.50
2022-09-05T17:41:43.173Z,1.60
2022-09-05T17:44:21.293Z,1.90
2022-09-05T17:47:15.218Z,1.90
2022-09-05T17:49:46.756Z,2.00
2022-09-05T17:52:24.708Z,1.77
2022-09-05T17:54:55.216Z,2.78
2022-09-05T17:57:41.879Z,2.17
2022-09-05T18:01:00.864Z,2.33
2022-09-05T18:04:17.686Z,2.60
2022-09-05T18:07:00.196Z,2.08
2022-09-05T18:16:12.220Z,1.98
2022-09-05T18:21:51.532Z,2.00
2022-09-05T18:27:43.876Z,2.10
2022-09-05T18:30:33.034Z,2.30
2022-09-05T18:33:54.407Z,2.30
2022-09-05T18:36:34.724Z,2.40
2022-09-05T18:39:44.588Z,2.35
2022-09-05T18:42:25.904Z,3.25
2022-09-05T18:44:59.961Z,2.10
2022-09-05T18:47:52.906Z,1.67
2022-09-05T18:50:32.105Z,2.53
2022-09-05T18:53:10.708Z,2.20
2022-09-05T18:56:14.352Z,2.28
2022-09-05T18:59:09.375Z,2.33
2022-09-05T19:01:43.542Z,2.28
2022-09-05T19:04:41.000Z,2.22
2022-09-05T19:07:13.745Z,2.08
2022-09-05T19:10:36.255Z,2.00
2022-09-05T19:12:58.731Z,1.80
2022-09-05T19:15:33.589Z,2.22
2022-09-05T19:18:27.187Z,2.05
2022-09-05T19:21:18.931Z,2.28
2022-09-05T19:23:53.919Z,2.00
2022-09-05T19:26:23.587Z,1.67
2022-09-05T19:36:45.721Z,1.92
2022-09-05T19:36:48.936Z,2.28
2022-09-05T19:36:58.278Z,2.08
2022-09-05T19:37:48.294Z,1.55
2022-09-05T19:43:24.139Z,1.73
2022-09-05T19:47:35.919Z,1.90
2022-09-05T19:47:38.168Z,1.60
2022-09-05T19:49:07.785Z,1.92
2022-09-05T19:51:36.588Z,1.65
2022-09-05T19:54:06.103Z,1.88
2022-09-05T19:56:38.757Z,2.10
2022-09-05T19:59:19.120Z,2.10
2022-09-05T20:01:50.421Z,2.28
2022-09-05T20:04:19.511Z,2.03
2022-09-05T20:06:49.447Z,2.28
2022-09-05T20:09:20.583Z,2.03
2022-09-05T20:11:50.376Z,2.10
2022-09-05T20:14:23.432Z,2.22
2022-09-05T20:16:58.041Z,1.98
2022-09-05T20:19:33.148Z,2.00
2022-09-05T20:22:37.116Z,1.95
2022-09-05T20:24:55.786Z,2.40
2022-09-05T20:27:28.243Z,1.80
2022-09-05T20:30:00.316Z,1.92
2022-09-05T20:32:39.514Z,1.77
2022-09-05T20:41:32.181Z,1.90
2022-09-05T20:43:15.642Z,1.88
2022-09-05T20:43:22.629Z,1.75
2022-09-05T20:44:01.554Z,2.30
2022-09-05T20:50:26.114Z,1.80
2022-09-05T20:54:09.299Z,2.00
2022-09-05T20:54:14.521Z,2.08
2022-09-05T20:55:41.419Z,2.60
2022-09-05T20:58:13.551Z,2.20
2022-09-05T21:01:20.827Z,2.40
2022-09-05T21:03:40.927Z,2.67
2022-09-05T21:06:29.373Z,2.10
2022-09-05T21:09:25.690Z,2.20
2022-09-05T21:11:55.869Z,2.42
2022-09-05T21:14:28.292Z,2.30
2022-09-05T21:17:14.733Z,2.17
2022-09-05T21:19:53.887Z,2.40
2022-09-05T21:22:33.186Z,2.50
2022-09-05T21:25:21.091Z,2.95
2022-09-05T21:28:03.104Z,2.67
2022-09-05T21:30:34.854Z,2.80
2022-09-05T21:33:12.956Z,2.80
2022-09-05T21:35:52.030Z,2.40
2022-09-05T21:38:32.954Z,2.40
2022-09-05T21:41:03.109Z,2.60
2022-09-05T21:47:10.546Z,2.85
2022-09-05T21:47:48.625Z,2.90
2022-09-05T21:49:14.202Z,3.10
2022-09-05T21:51:48.038Z,2.90
2022-09-05T21:59:14.070Z,3.00
2022-09-05T21:59:29.034Z,2.85
2022-09-05T22:00:11.269Z,2.75
2022-09-05T22:02:39.663Z,3.08
2022-09-05T22:05:08.327Z,3.10
2022-09-05T22:07:37.444Z,3.20
2022-09-05T22:10:09.608Z,3.10
2022-09-05T22:12:38.797Z,3.10
2022-09-05T22:15:26.510Z,3.10
2022-09-05T22:18:17.275Z,3.65
2022-09-05T22:21:31.733Z,3.30
2022-09-05T22:23:49.063Z,3.65
2022-09-05T22:26:20.383Z,3.35
2022-09-05T22:28:49.631Z,3.30
2022-09-05T22:31:18.601Z,3.30
2022-09-05T22:33:50.616Z,3.58
2022-09-05T22:36:19.417Z,3.38
2022-09-05T22:38:47.578Z,3.30
2022-09-05T22:41:15.908Z,3.30
2022-09-05T22:43:47.271Z,3.53
2022-09-05T22:46:15.909Z,3.17
2022-09-05T22:48:43.953Z,3.20
2022-09-05T22:51:12.143Z,3.22
2022-09-05T22:53:40.246Z,3.00
2022-09-05T22:56:10.341Z,3.22
2022-09-05T22:58:45.057Z,3.00
2022-09-05T23:01:14.692Z,3.13
2022-09-05T23:03:42.684Z,3.33
2022-09-05T23:06:11.874Z,2.90
2022-09-05T23:08:39.964Z,3.20
2022-09-05T23:11:08.884Z,2.85
2022-09-05T23:13:36.887Z,2.78
2022-09-05T23:16:05.617Z,2.60
2022-09-05T23:18:35.697Z,2.60
2022-09-05T23:21:05.250Z,2.88
2022-09-05T23:23:33.513Z,2.95
2022-09-05T23:26:01.949Z,2.83
2022-09-05T23:28:30.208Z,2.35
2022-09-05T23:31:00.300Z,2.67
2022-09-05T23:33:29.240Z,2.58
2022-09-05T23:36:02.496Z,2.33
2022-09-05T23:38:31.042Z,2.80
2022-09-05T23:41:03.163Z,2.88
2022-09-05T23:43:31.489Z,2.38
2022-09-05T23:45:59.974Z,2.40
2022-09-05T23:48:28.539Z,2.30
2022-09-05T23:50:57.256Z,2.25
2022-09-05T23:53:26.845Z,2.30
2022-09-05T23:55:54.820Z,2.17
2022-09-05T23:58:22.808Z,2.33
